AirNav   Everest Fuels
 
 558 users online  

0FL7 WKMG-TV Heliport
Orlando, Florida, USA

GOING TO ORLANDO?


FAA INFORMATION EFFECTIVE 21 MAY 2020

Location

FAA Identifier: 0FL7
Lat/Long: 28-35-38.7000N 081-25-11.6000W
28-35.645000N 081-25.193333W
28.5940833,-81.4198889
(estimated)
Elevation: 98.8 ft. / 30.1 m (surveyed)
Variation: 04W (1995)
From city: 4 miles NW of ORLANDO, FL
Time zone: UTC -4 (UTC -5 during Standard Time)
Zip code: 32810

Heliport Operations

Heliport use: Private use. Permission required prior to landing
Activation date: 04/1999
Control tower: no
ARTCC: JACKSONVILLE CENTER
FSS: SAINT PETERSBURG FLIGHT SERVICE STATION
Attendance: DAWN-DUSK
Wind indicator: yes
Segmented circle: no
Lights: SS-SR

Heliport Communications

WX ASOS at ORL (5 nm SE): PHONE 407-658-6753
WX ASOS at MCO (11 nm SE): PHONE 407-855-5235
WX ASOS at SFB (15 nm NE): PHONE 407-321-9384
WX AWOS-3PT at ISM (18 nm S): 128.775 (407-847-0533)

Nearby radio navigation aids

VOR radial/distance  VOR name  Freq  Var
ORLr305/5.4ORLANDO VORTAC112.2000E

Heliport Services

Runway Information

Helipad H1

Dimensions: 35 x 35 ft. / 11 x 11 m
Surface: concrete
Runway edge lights: PERI
Latitude: 28-35.645000N
Longitude: 081-25.193333W
Elevation: 98.8 ft.
Traffic pattern: leftleft

Heliport Ownership and Management from official FAA records

Ownership: Privately-owned
Owner: GRAHAM MEDIA GROUP, ORLANDO, INC.
4466 N. JOHN YOUNG PARKWAY
ORLANDO, FL 32804
Phone 407-291-6000
Manager: FRANK TORBERT
4466 N. JOHN YOUNG PARKWAY
ORLANDO, FL 32804
Phone 407-291-6000
ADDNL MGR LAURA GENETTE 407-291-6000 LGENETTE@WKMG.COM

Additional Remarks

FOR CD CTC ORLANDO APCH AT 407-852-7553.

Instrument Procedures

There are no published instrument procedures at 0FL7.

Some nearby airports with instrument procedures:

KORL - Executive Airport (5 nm SE)
X04 - Orlando Apopka Airport (11 nm NW)
KMCO - Orlando International Airport (11 nm SE)
KSFB - Orlando Sanford International Airport (15 nm NE)
KISM - Kissimmee Gateway Airport (18 nm S)
 
Loc | Ops | Rwys | IFR | FBO | Links
Com | Nav | Svcs | Stats | Notes


 
Area around 0FL7 (WKMG-TV Heliport)
 
Road maps at: MapQuest Bing Google
 
Aerial photo
No photo
 
Sectional chart

 
Airport distance calculator
Flying to WKMG-TV Heliport? Find the distance to fly.

From to 0FL7

Sunrise and sunset
Times for 01-Jun-2020
 Local
(UTC-4)
 Zulu
(UTC)
Morning civil twilight06:0210:02
Sunrise06:2910:29
Sunset20:1800:18
Evening civil twilight20:4500:45

Current date and time
Zulu (UTC)  01-Jun-2020 05:03:58
Local (UTC-4)  01-Jun-2020 01:03:58
 
METAR
KMCO 
12nm SE 
010453Z 14004KT 10SM FEW047 SCT070 SCT250 27/23 A3003 RMK AO2 SLP169 T02670228 403440211
KSFB 
15nm NE 
010453Z AUTO 14003KT 10SM BKN050 26/23 A3003 RMK AO2 SLP168 T02610228 403390222
KISM 
19nm S 
010456Z AUTO 15005KT 10SM CLR 26/24 A3004 RMK AO2 SLP172 T02610239 403390211 PNO $
TAF
KMCO 
12nm SE 
010257Z 0103/0206 VRB03KT P6SM FEW060 SCT250 FM011300 03006KT P6SM SCT040 FM011700 06013KT P6SM VCSH SCT040 BKN250 FM012100 07015G23KT P6SM SCT100 BKN250 FM020300 07010KT P6SM SCT250
KSFB 
15nm NE 
311735Z 3118/0118 35007KT P6SM VCTS SCT040CB SCT250 TEMPO 3119/3121 3SM TSRA BKN035CB FM312100 08008KT P6SM VCTS SCT040CB BKN150 FM010200 VRB03KT P6SM SCT100 BKN250 FM011300 05007KT P6SM SCT040 FM011700 07013KT P6SM VCTS SCT040CB BKN250
KISM 
19nm S 
312106Z 3121/0118 24005KT P6SM SCT040 SCT250 FM312200 08007KT P6SM VCTS SCT040CB BKN150 TEMPO 3122/3124 3SM TSRA BKN035CB FM010200 VRB03KT P6SM SCT100 BKN250 FM011300 05006KT P6SM SCT040 FM011700 07013KT P6SM VCTS SCT040CB BKN250
NOTAMs
Click for the latest NOTAMs
NOTAMs are issued by the DoD/FAA and will open in a separate window not controlled by AirNav.

 

 
 

Would you like to see your business listed on this page?

 If your business provides an interesting product or service to pilots, flight crews, aircraft, or users of the WKMG-TV Heliport, you should consider listing it here.  To start the listing process, click on the button below
 
Add a business
 

Other Pages about WKMG-TV Heliport

Update a link
 
Copyright © AirNav, LLC. All rights reserved. Privacy Policy  Contact